createdAt,value
2019-03-01T00:01:59.789Z,10.29
2019-03-01T00:04:54.752Z,10.30
2019-03-01T00:08:01.878Z,10.25
2019-03-01T00:11:09.224Z,10.35
2019-03-01T00:13:46.064Z,10.15
2019-03-01T00:16:36.501Z,10.22
2019-03-01T00:19:13.409Z,10.19
2019-03-01T00:21:59.065Z,10.18
2019-03-01T00:24:41.542Z,10.11
2019-03-01T00:27:46.146Z,10.25
2019-03-01T00:30:37.785Z,10.14
2019-03-01T00:33:29.962Z,10.23
2019-03-01T00:36:29.254Z,9.97
2019-03-01T00:39:24.425Z,10.20
2019-03-01T00:42:24.770Z,10.22
2019-03-01T00:44:54.244Z,10.26
2019-03-01T00:47:23.785Z,10.23
2019-03-01T00:49:53.264Z,10.23
2019-03-01T00:52:22.759Z,10.20
2019-03-01T00:54:52.245Z,10.29
2019-03-01T00:57:21.833Z,10.36
2019-03-01T00:59:51.408Z,10.37
2019-03-01T01:02:20.998Z,10.37
2019-03-01T01:04:50.500Z,10.19
2019-03-01T01:07:19.991Z,10.21
2019-03-01T01:09:49.490Z,10.44
2019-03-01T01:12:19.255Z,10.19
2019-03-01T01:14:48.814Z,10.15
2019-03-01T01:17:18.382Z,10.15
2019-03-01T01:19:47.873Z,10.08
2019-03-01T01:22:17.448Z,10.24
2019-03-01T01:24:47.041Z,10.31
2019-03-01T01:27:16.516Z,10.25
2019-03-01T01:29:46.012Z,10.19
2019-03-01T01:32:15.520Z,10.43
2019-03-01T01:34:45.080Z,10.37
2019-03-01T01:37:14.653Z,10.21
2019-03-01T01:39:44.147Z,10.42
2019-03-01T01:42:13.665Z,10.31
2019-03-01T01:44:43.161Z,10.38
2019-03-01T01:47:12.683Z,10.18
2019-03-01T01:49:42.170Z,10.16
2019-03-01T01:52:11.659Z,10.13
2019-03-01T01:54:41.169Z,10.38
2019-03-01T01:57:10.861Z,10.36
2019-03-01T01:59:40.368Z,10.14
2019-03-01T02:02:09.851Z,10.27
2019-03-01T02:04:39.547Z,10.00
2019-03-01T02:07:09.032Z,9.90
2019-03-01T02:09:38.947Z,10.10
2019-03-01T02:12:08.455Z,9.92
2019-03-01T02:14:37.942Z,9.85
2019-03-01T02:17:07.448Z,9.90
2019-03-01T02:19:36.933Z,9.88
2019-03-01T02:22:06.512Z,9.97
2019-03-01T02:24:36.026Z,9.91
2019-03-01T02:27:28.780Z,9.82
2019-03-01T02:29:58.293Z,9.76
2019-03-01T02:32:35.362Z,9.76
2019-03-01T02:35:07.672Z,9.84
2019-03-01T02:37:37.225Z,9.89
2019-03-01T02:40:10.838Z,9.94
2019-03-01T02:42:40.319Z,9.99
2019-03-01T02:45:19.986Z,10.19
2019-03-01T02:47:49.472Z,9.97
2019-03-01T02:50:21.286Z,9.94
2019-03-01T02:52:51.026Z,10.02
2019-03-01T02:55:22.296Z,9.90
2019-03-01T02:57:51.979Z,9.73
2019-03-01T03:00:27.895Z,9.75
2019-03-01T03:02:57.469Z,9.74
2019-03-01T03:05:27.033Z,10.05
2019-03-01T03:07:58.219Z,9.80
2019-03-01T03:10:27.855Z,9.74
2019-03-01T03:13:07.238Z,9.68
2019-03-01T03:15:41.160Z,9.74
2019-03-01T03:18:10.736Z,9.84
2019-03-01T03:20:40.228Z,9.68
2019-03-01T03:23:09.705Z,9.76
2019-03-01T03:25:39.221Z,9.77
2019-03-01T03:28:08.793Z,9.70
2019-03-01T03:30:38.370Z,9.91
2019-03-01T03:33:07.921Z,9.75
2019-03-01T03:35:37.440Z,9.75
2019-03-01T03:38:07.015Z,9.77
2019-03-01T03:40:36.652Z,9.83
2019-03-01T03:43:06.459Z,9.98
2019-03-01T03:45:35.920Z,9.85
2019-03-01T03:48:05.476Z,10.06
2019-03-01T03:50:35.022Z,9.94
2019-03-01T03:53:05.072Z,9.83
2019-03-01T03:55:34.708Z,9.85
2019-03-01T03:58:04.436Z,10.01
2019-03-01T04:00:33.996Z,9.93
2019-03-01T04:03:03.560Z,9.87
2019-03-01T04:05:33.106Z,9.76
2019-03-01T04:08:02.764Z,9.73
2019-03-01T04:10:32.244Z,9.83
2019-03-01T04:13:01.801Z,9.74
2019-03-01T04:15:31.354Z,9.68
2019-03-01T04:18:00.925Z,9.53
2019-03-01T04:20:30.412Z,9.58
2019-03-01T04:22:59.916Z,9.53
2019-03-01T04:25:29.409Z,9.48
2019-03-01T04:27:58.902Z,9.42
2019-03-01T04:30:28.396Z,9.46
2019-03-01T04:32:57.878Z,9.41
2019-03-01T04:35:27.410Z,9.37
2019-03-01T04:37:56.900Z,9.40
2019-03-01T04:40:26.420Z,9.29
2019-03-01T04:42:55.918Z,9.54
2019-03-01T04:45:25.401Z,9.58
2019-03-01T04:47:54.897Z,9.68
2019-03-01T04:50:24.372Z,9.67
2019-03-01T04:52:53.934Z,9.51
2019-03-01T04:55:26.430Z,9.41
2019-03-01T04:57:55.989Z,9.43
2019-03-01T05:00:26.214Z,9.49
2019-03-01T05:02:55.693Z,9.50
2019-03-01T05:05:25.271Z,9.42
2019-03-01T05:07:54.747Z,9.38
2019-03-01T05:10:24.232Z,9.43
2019-03-01T05:12:54.164Z,9.40
2019-03-01T05:15:25.376Z,9.28
2019-03-01T05:17:54.873Z,9.30
2019-03-01T05:20:24.435Z,9.24
2019-03-01T05:22:53.934Z,9.25
2019-03-01T05:25:23.479Z,9.27
2019-03-01T05:27:52.964Z,9.24
2019-03-01T05:30:22.576Z,9.34
2019-03-01T05:32:52.086Z,9.31
2019-03-01T05:35:21.563Z,9.37
2019-03-01T05:37:51.160Z,9.56
2019-03-01T05:40:20.639Z,9.58
2019-03-01T05:42:50.133Z,9.69
2019-03-01T05:45:27.729Z,9.57
2019-03-01T05:47:57.209Z,9.42
2019-03-01T05:50:26.764Z,9.30
2019-03-01T05:52:56.258Z,9.48
2019-03-01T05:55:25.832Z,9.40
2019-03-01T05:58:33.765Z,9.41
2019-03-01T06:01:08.311Z,9.45
2019-03-01T06:03:57.484Z,9.53
2019-03-01T06:06:48.431Z,9.54
2019-03-01T06:09:45.091Z,9.55
2019-03-01T06:13:00.202Z,9.64
2019-03-01T06:15:57.099Z,9.67
2019-03-01T06:19:01.257Z,9.58
2019-03-01T06:21:55.855Z,9.61
2019-03-01T06:24:59.869Z,9.65
2019-03-01T06:27:52.148Z,9.57
2019-03-01T06:30:51.575Z,9.55
2019-03-01T06:33:52.829Z,9.53
2019-03-01T06:36:44.731Z,9.70
2019-03-01T06:39:48.942Z,9.86
2019-03-01T06:42:30.124Z,9.81
2019-03-01T06:45:13.210Z,9.82
2019-03-01T06:47:50.229Z,9.76
2019-03-01T06:50:21.369Z,9.79
2019-03-01T06:52:51.042Z,9.84
2019-03-01T06:55:39.800Z,9.80
2019-03-01T06:58:13.618Z,9.78
2019-03-01T07:00:50.139Z,10.09
2019-03-01T07:03:16.051Z,9.94
2019-03-01T07:05:45.665Z,10.01
2019-03-01T07:08:15.166Z,10.03
2019-03-01T07:10:44.743Z,10.05
2019-03-01T07:13:14.244Z,10.15
2019-03-01T07:15:43.755Z,10.15
2019-03-01T07:18:13.327Z,10.00
2019-03-01T07:20:42.841Z,10.05
2019-03-01T07:23:12.363Z,10.06
2019-03-01T07:25:42.565Z,9.95
2019-03-01T07:28:12.225Z,9.85
2019-03-01T07:30:41.739Z,9.84
2019-03-01T07:33:11.241Z,10.00
2019-03-01T07:35:40.791Z,9.99
2019-03-01T07:38:10.269Z,9.97
2019-03-01T07:40:39.779Z,9.94
2019-03-01T07:43:09.299Z,9.95
2019-03-01T07:45:38.849Z,10.06
2019-03-01T07:48:08.405Z,10.05
2019-03-01T07:50:37.891Z,9.94
2019-03-01T07:53:07.409Z,10.15
2019-03-01T07:55:56.240Z,10.08
2019-03-01T07:58:26.773Z,9.97
2019-03-01T08:00:56.402Z,9.99
2019-03-01T08:03:25.929Z,10.01
2019-03-01T08:05:55.505Z,10.05
2019-03-01T08:08:24.990Z,10.10
2019-03-01T08:10:56.399Z,9.93
2019-03-01T08:13:26.770Z,10.01
2019-03-01T08:15:56.500Z,9.84
2019-03-01T08:18:26.133Z,9.90
2019-03-01T08:20:55.642Z,9.90
2019-03-01T08:23:25.151Z,9.95
2019-03-01T08:25:55.581Z,10.04
2019-03-01T08:28:25.897Z,10.10
2019-03-01T08:30:55.414Z,10.15
2019-03-01T08:33:24.912Z,10.18
2019-03-01T08:35:54.440Z,10.35
2019-03-01T08:38:25.477Z,10.49
2019-03-01T08:40:55.184Z,10.52
2019-03-01T08:43:24.712Z,10.41
2019-03-01T08:45:54.204Z,10.21
2019-03-01T08:48:23.725Z,10.19
2019-03-01T08:50:53.306Z,10.26
2019-03-01T08:53:22.819Z,10.30
2019-03-01T08:55:52.339Z,10.19
2019-03-01T08:58:21.871Z,10.35
2019-03-01T09:00:59.205Z,10.37
2019-03-01T09:03:30.568Z,10.43
2019-03-01T09:06:00.170Z,10.43
2019-03-01T09:08:29.768Z,10.48
2019-03-01T09:10:59.564Z,10.56
2019-03-01T09:13:29.367Z,10.56
2019-03-01T09:15:58.951Z,10.34
2019-03-01T09:18:28.518Z,10.19
2019-03-01T09:21:04.402Z,9.98
2019-03-01T09:23:29.296Z,9.74
2019-03-01T09:25:58.788Z,9.65
2019-03-01T09:28:28.549Z,9.57
2019-03-01T09:30:58.112Z,9.36
2019-03-01T09:33:27.672Z,9.25
2019-03-01T09:36:01.530Z,9.12
2019-03-01T09:38:31.103Z,9.10
2019-03-01T09:41:01.237Z,9.06
2019-03-01T09:43:32.085Z,8.92
2019-03-01T09:46:01.671Z,8.92
2019-03-01T09:48:31.192Z,8.98
2019-03-01T09:51:00.690Z,9.03
2019-03-01T09:53:30.611Z,9.07
2019-03-01T09:56:01.423Z,9.06
2019-03-01T09:58:30.936Z,8.98
2019-03-01T10:01:16.323Z,8.94
2019-03-01T10:03:46.183Z,8.96
2019-03-01T10:06:15.678Z,8.89
2019-03-01T10:08:45.308Z,8.85
2019-03-01T10:11:14.873Z,8.84
2019-03-01T10:13:44.359Z,8.84
2019-03-01T10:16:14.016Z,8.83
2019-03-01T10:18:43.512Z,8.95
2019-03-01T10:21:13.147Z,8.94
2019-03-01T10:23:42.769Z,8.87
2019-03-01T10:26:12.323Z,8.84
2019-03-01T10:28:41.835Z,8.76
2019-03-01T10:31:11.396Z,8.88
2019-03-01T10:33:40.960Z,8.83
2019-03-01T10:36:10.779Z,8.87
2019-03-01T10:38:40.343Z,8.84
2019-03-01T10:41:09.836Z,8.74
2019-03-01T10:43:39.332Z,8.77
2019-03-01T10:46:08.885Z,8.85
2019-03-01T10:48:38.457Z,8.87
2019-03-01T10:51:07.949Z,8.80
2019-03-01T10:53:37.455Z,9.03
2019-03-01T10:56:07.929Z,9.02
2019-03-01T10:58:37.425Z,8.85
2019-03-01T11:01:07.164Z,8.90
2019-03-01T11:03:36.658Z,8.85
2019-03-01T11:06:06.235Z,8.89
2019-03-01T11:08:35.834Z,8.83
2019-03-01T11:11:05.445Z,8.75
2019-03-01T11:13:34.957Z,8.83
2019-03-01T11:16:04.536Z,8.84
2019-03-01T11:18:34.044Z,9.05
2019-03-01T11:21:03.666Z,8.67
2019-03-01T11:23:33.165Z,8.85
2019-03-01T11:26:02.736Z,8.85
2019-03-01T11:28:32.324Z,8.89
2019-03-01T11:31:01.975Z,8.90
2019-03-01T11:33:31.480Z,8.88
2019-03-01T11:36:01.053Z,8.90
2019-03-01T11:38:30.541Z,8.99
2019-03-01T11:41:00.057Z,9.08
2019-03-01T11:43:29.637Z,9.04
2019-03-01T11:46:00.652Z,9.11
2019-03-01T11:48:30.311Z,9.19
2019-03-01T11:50:59.799Z,9.33
2019-03-01T11:53:29.324Z,9.21
2019-03-01T11:55:58.889Z,9.26
2019-03-01T11:58:28.393Z,9.27
2019-03-01T12:00:57.910Z,9.19
2019-03-01T12:03:27.496Z,9.33
2019-03-01T12:05:57.000Z,9.25
2019-03-01T12:08:26.496Z,9.39
2019-03-01T12:10:55.976Z,9.63
2019-03-01T12:13:25.537Z,9.60
2019-03-01T12:15:55.028Z,9.49
2019-03-01T12:18:24.667Z,9.51
2019-03-01T12:20:54.236Z,9.53
2019-03-01T12:23:23.738Z,9.50
2019-03-01T12:25:53.250Z,9.40
2019-03-01T12:28:22.739Z,9.32
2019-03-01T12:30:52.245Z,9.19
2019-03-01T12:33:21.899Z,9.33
2019-03-01T12:35:51.438Z,9.25
2019-03-01T12:38:20.926Z,9.17
2019-03-01T12:40:50.434Z,9.09
2019-03-01T12:43:19.958Z,9.17
2019-03-01T12:45:49.549Z,9.17
2019-03-01T12:48:19.113Z,9.15
2019-03-01T12:50:48.621Z,9.06
2019-03-01T12:53:18.124Z,8.98
2019-03-01T12:55:47.618Z,8.93
2019-03-01T12:58:19.640Z,8.93
2019-03-01T13:00:48.329Z,8.82
2019-03-01T13:03:17.838Z,8.89
2019-03-01T13:05:47.401Z,8.89
2019-03-01T13:08:16.892Z,8.82
2019-03-01T13:10:46.402Z,8.84
2019-03-01T13:13:15.946Z,8.93
2019-03-01T13:15:48.628Z,8.96
2019-03-01T13:18:16.901Z,9.00
2019-03-01T13:20:46.518Z,9.07
2019-03-01T13:23:16.048Z,9.15
2019-03-01T13:25:45.554Z,9.04
2019-03-01T13:28:15.035Z,9.13
2019-03-01T13:30:44.548Z,9.16
2019-03-01T13:33:14.066Z,9.06
2019-03-01T13:35:43.631Z,9.07
2019-03-01T13:38:13.131Z,8.92
2019-03-01T13:40:42.646Z,9.04
2019-03-01T13:43:12.219Z,9.06
2019-03-01T13:45:41.801Z,9.03
2019-03-01T13:48:11.386Z,8.99
2019-03-01T13:50:41.493Z,9.08
2019-03-01T13:53:12.043Z,9.11
2019-03-01T13:55:41.583Z,8.92
2019-03-01T13:58:11.082Z,8.67
2019-03-01T14:00:40.666Z,8.45
2019-03-01T14:03:10.147Z,8.35
2019-03-01T14:05:39.735Z,8.42
2019-03-01T14:08:09.517Z,8.12
2019-03-01T14:10:41.831Z,8.21
2019-03-01T14:13:11.135Z,8.12
2019-03-01T14:15:41.405Z,8.03
2019-03-01T14:18:10.885Z,8.04
2019-03-01T14:20:40.411Z,8.23
2019-03-01T14:23:09.944Z,8.21
2019-03-01T14:25:41.714Z,8.13
2019-03-01T14:28:10.821Z,8.16
2019-03-01T14:30:40.325Z,8.12
2019-03-01T14:33:09.854Z,7.84
2019-03-01T14:35:39.347Z,7.88
2019-03-01T14:38:08.832Z,7.82
2019-03-01T14:40:38.348Z,7.68
2019-03-01T14:43:07.857Z,7.60
2019-03-01T14:45:37.390Z,7.74
2019-03-01T14:48:08.865Z,7.84
2019-03-01T14:50:38.222Z,7.70
2019-03-01T14:53:07.693Z,7.73
2019-03-01T14:55:44.406Z,7.79
2019-03-01T14:58:24.211Z,7.59
2019-03-01T15:01:16.174Z,7.79
2019-03-01T15:03:45.750Z,7.88
2019-03-01T15:06:19.199Z,7.79
2019-03-01T15:08:47.228Z,7.81
2019-03-01T15:11:16.791Z,7.81
2019-03-01T15:13:46.633Z,7.78
2019-03-01T15:16:16.254Z,7.65
2019-03-01T15:18:46.066Z,7.55
2019-03-01T15:21:16.049Z,7.57
2019-03-01T15:23:45.611Z,7.59
2019-03-01T15:26:15.175Z,7.62
2019-03-01T15:28:55.345Z,7.67
2019-03-01T15:31:24.700Z,7.38
2019-03-01T15:33:54.194Z,7.46
2019-03-01T15:36:23.696Z,7.45
2019-03-01T15:38:53.171Z,7.37
2019-03-01T15:41:22.734Z,7.29
2019-03-01T15:43:52.311Z,7.26
2019-03-01T15:46:21.946Z,7.24
2019-03-01T15:48:51.510Z,7.25
2019-03-01T15:51:21.055Z,7.30
2019-03-01T15:53:50.633Z,7.35
2019-03-01T15:56:22.047Z,7.41
2019-03-01T15:58:51.399Z,7.31
2019-03-01T16:01:21.024Z,7.29
2019-03-01T16:03:50.647Z,7.34
2019-03-01T16:06:22.250Z,7.37
2019-03-01T16:08:51.390Z,7.32
2019-03-01T16:11:20.961Z,7.29
2019-03-01T16:13:51.184Z,7.24
2019-03-01T16:16:20.798Z,7.28
2019-03-01T16:18:50.285Z,7.42
2019-03-01T16:21:20.248Z,7.33
2019-03-01T16:23:49.866Z,7.30
2019-03-01T16:26:19.384Z,7.29
2019-03-01T16:28:48.861Z,7.18
2019-03-01T16:31:18.360Z,7.20
2019-03-01T16:33:47.863Z,7.16
2019-03-01T16:36:19.120Z,7.40
2019-03-01T16:38:48.972Z,7.37
2019-03-01T16:41:18.687Z,7.40
2019-03-01T16:43:48.194Z,7.33
2019-03-01T16:46:17.705Z,7.29
2019-03-01T16:48:48.835Z,7.40
2019-03-01T16:51:18.824Z,7.12
2019-03-01T16:53:49.188Z,7.24
2019-03-01T16:56:18.695Z,7.40
2019-03-01T16:58:48.214Z,7.21
2019-03-01T17:01:17.703Z,7.24
2019-03-01T17:03:49.508Z,7.24
2019-03-01T17:06:18.508Z,7.15
2019-03-01T17:08:48.102Z,7.35
2019-03-01T17:11:17.692Z,7.24
2019-03-01T17:13:47.254Z,7.38
2019-03-01T17:16:16.768Z,7.63
2019-03-01T17:18:47.743Z,7.57
2019-03-01T17:21:17.571Z,7.49
2019-03-01T17:23:47.103Z,7.34
2019-03-01T17:26:16.692Z,7.51
2019-03-01T17:28:46.241Z,7.56
2019-03-01T17:31:15.772Z,7.52
2019-03-01T17:33:48.807Z,7.56
2019-03-01T17:36:17.045Z,7.62
2019-03-01T17:38:47.591Z,7.67
2019-03-01T17:41:17.164Z,7.58
2019-03-01T17:43:46.711Z,7.44
2019-03-01T17:46:16.225Z,7.58
2019-03-01T17:48:45.705Z,7.50
2019-03-01T17:51:18.232Z,7.62
2019-03-01T17:53:47.252Z,7.54
2019-03-01T17:56:18.637Z,7.56
2019-03-01T17:58:47.997Z,7.51
2019-03-01T18:01:17.469Z,7.46
2019-03-01T18:03:46.992Z,7.38
2019-03-01T18:06:16.978Z,7.45
2019-03-01T18:08:47.363Z,7.71
2019-03-01T18:11:16.849Z,7.63
2019-03-01T18:13:46.407Z,7.63
2019-03-01T18:16:15.893Z,7.68
2019-03-01T18:18:48.804Z,7.65
2019-03-01T18:21:16.672Z,7.49
2019-03-01T18:23:46.255Z,7.45
2019-03-01T18:26:15.829Z,7.59
2019-03-01T18:28:45.311Z,7.44
2019-03-01T18:31:14.904Z,7.44
2019-03-01T18:33:44.366Z,7.44
2019-03-01T18:36:13.867Z,7.56
2019-03-01T18:38:43.363Z,7.46
2019-03-01T18:41:12.856Z,7.54
2019-03-01T18:43:45.694Z,7.43
2019-03-01T18:46:14.556Z,7.44
2019-03-01T18:48:44.776Z,7.51
2019-03-01T18:51:14.299Z,7.42
2019-03-01T18:53:45.536Z,7.45
2019-03-01T18:56:15.255Z,7.21
2019-03-01T18:58:45.764Z,7.40
2019-03-01T19:01:16.093Z,7.34
2019-03-01T19:03:45.670Z,7.28
2019-03-01T19:06:16.302Z,7.17
2019-03-01T19:08:46.495Z,7.28
2019-03-01T19:11:16.047Z,7.21
2019-03-01T19:13:45.880Z,7.29
2019-03-01T19:16:15.534Z,7.37
2019-03-01T19:18:48.306Z,7.40
2019-03-01T19:21:17.319Z,7.26
2019-03-01T19:23:47.694Z,7.25
2019-03-01T19:26:17.255Z,7.42
2019-03-01T19:28:46.801Z,7.33
2019-03-01T19:31:16.312Z,7.29
2019-03-01T19:33:45.831Z,7.34
2019-03-01T19:36:15.347Z,7.43
2019-03-01T19:38:46.391Z,7.28
2019-03-01T19:41:16.103Z,7.29
2019-03-01T19:43:53.841Z,7.34
2019-03-01T19:46:16.885Z,7.23
2019-03-01T19:48:46.394Z,7.24
2019-03-01T19:51:15.890Z,7.08
2019-03-01T19:53:45.443Z,7.23
2019-03-01T19:56:14.959Z,7.31
2019-03-01T19:58:48.025Z,7.06
2019-03-01T20:01:17.959Z,7.04
2019-03-01T20:03:46.963Z,7.23
2019-03-01T20:06:16.594Z,7.11
2019-03-01T20:08:46.197Z,7.13
2019-03-01T20:11:36.166Z,7.15
2019-03-01T20:14:05.817Z,7.16
2019-03-01T20:16:35.370Z,7.23
2019-03-01T20:19:04.856Z,7.14
2019-03-01T20:21:34.358Z,7.34
2019-03-01T20:24:05.337Z,7.13
2019-03-01T20:26:36.343Z,7.09
2019-03-01T20:29:05.992Z,6.98
2019-03-01T20:31:36.760Z,7.13
2019-03-01T20:34:07.028Z,6.98
2019-03-01T20:36:36.558Z,7.35
2019-03-01T20:39:25.386Z,6.99
2019-03-01T20:41:54.932Z,7.00
2019-03-01T20:44:24.509Z,7.04
2019-03-01T20:46:54.106Z,6.96
2019-03-01T20:49:23.576Z,7.13
2019-03-01T20:51:53.199Z,6.89
2019-03-01T20:54:25.686Z,6.92
2019-03-01T20:56:54.039Z,6.94
2019-03-01T20:59:23.525Z,6.90
2019-03-01T21:01:53.030Z,7.05
2019-03-01T21:04:22.543Z,6.95
2019-03-01T21:06:52.047Z,7.02
2019-03-01T21:09:21.539Z,7.10
2019-03-01T21:11:51.111Z,7.07
2019-03-01T21:14:23.807Z,6.94
2019-03-01T21:16:51.846Z,7.04
2019-03-01T21:19:21.329Z,6.83
2019-03-01T21:21:50.922Z,6.70
2019-03-01T21:24:22.954Z,6.95
2019-03-01T21:26:52.695Z,7.01
2019-03-01T21:29:22.182Z,7.00
2019-03-01T21:31:51.718Z,6.77
2019-03-01T21:34:21.175Z,6.74
2019-03-01T21:36:50.688Z,6.86
2019-03-01T21:39:20.641Z,6.72
2019-03-01T21:41:51.765Z,6.68
2019-03-01T21:44:21.279Z,6.71
2019-03-01T21:46:50.926Z,6.70
2019-03-01T21:49:20.547Z,6.80
2019-03-01T21:51:51.743Z,6.68
2019-03-01T21:54:21.375Z,6.68
2019-03-01T21:56:56.046Z,6.56
2019-03-01T21:59:22.228Z,6.53
2019-03-01T22:01:52.775Z,6.57
2019-03-01T22:04:22.587Z,6.66
2019-03-01T22:06:52.083Z,6.72
2019-03-01T22:09:24.324Z,6.74
2019-03-01T22:11:54.819Z,6.92
2019-03-01T22:14:24.374Z,7.20
2019-03-01T22:16:53.866Z,7.08
2019-03-01T22:19:23.351Z,6.98
2019-03-01T22:21:54.638Z,6.90
2019-03-01T22:24:26.498Z,6.91
2019-03-01T22:26:55.362Z,6.73
2019-03-01T22:29:24.877Z,6.59
2019-03-01T22:31:54.370Z,6.93
2019-03-01T22:34:23.865Z,7.12
2019-03-01T22:36:53.840Z,6.97
2019-03-01T22:39:23.461Z,7.06
2019-03-01T22:41:53.043Z,6.99
2019-03-01T22:44:22.604Z,6.83
2019-03-01T22:46:52.127Z,6.74
2019-03-01T22:49:21.678Z,6.74
2019-03-01T22:51:52.893Z,6.86
2019-03-01T22:54:22.652Z,6.78
2019-03-01T22:56:52.165Z,6.75
2019-03-01T22:59:21.826Z,6.62
2019-03-01T23:01:51.636Z,6.59
2019-03-01T23:04:21.142Z,6.61
2019-03-01T23:06:51.613Z,6.61
2019-03-01T23:09:22.384Z,6.67
2019-03-01T23:11:51.977Z,6.66
2019-03-01T23:14:21.472Z,6.63
2019-03-01T23:16:54.488Z,6.56
2019-03-01T23:19:22.309Z,6.54
2019-03-01T23:21:51.890Z,6.52
2019-03-01T23:24:21.434Z,6.54
2019-03-01T23:27:10.293Z,6.55
2019-03-01T23:29:39.783Z,6.53
2019-03-01T23:32:11.854Z,6.41
2019-03-01T23:34:42.492Z,6.50
2019-03-01T23:37:11.825Z,6.50
2019-03-01T23:39:41.316Z,6.56
2019-03-01T23:42:10.825Z,6.64
2019-03-01T23:44:41.531Z,6.63
2019-03-01T23:47:11.531Z,6.60
2019-03-01T23:49:41.082Z,6.54
2019-03-01T23:52:10.635Z,6.63
2019-03-01T23:54:40.667Z,6.68
2019-03-01T23:57:11.355Z,6.71
2019-03-01T23:59:40.860Z,6.68
